Time;durP1;ratioP1;P1;durP2;ratioP2;P2;SDS_P1;SDS_P2;PMS_P1;PMS_P2;Temp;Humidity;BMP_temperature;BMP_pressure;BME280_temperature;BME280_humidity;BME280_pressure;Samples;Min_cycle;Max_cycle;Signal;HPM_P1;HPM_P2
2022/10/22 00:00:00;;;;;;;15.27;8.10;;;11.40;99.90;;;;;;5099965;28;20113;-73
2022/10/22 00:02:27;;;;;;;16.67;8.23;;;11.40;99.90;;;;;;5083027;28;20031;-73
2022/10/22 00:04:55;;;;;;;16.88;8.63;;;11.50;99.90;;;;;;5100483;28;20024;-73
2022/10/22 00:07:23;;;;;;;19.63;9.07;;;11.50;99.90;;;;;;5100932;28;20020;-73
2022/10/22 00:09:50;;;;;;;30.88;8.85;;;11.50;99.90;;;;;;5100634;28;20016;-73
2022/10/22 00:12:18;;;;;;;15.57;8.85;;;11.50;99.90;;;;;;5100258;28;20107;-73
2022/10/22 00:14:46;;;;;;;18.95;9.18;;;11.50;99.90;;;;;;5100365;28;20031;-73
2022/10/22 00:17:14;;;;;;;15.88;8.63;;;11.40;99.90;;;;;;5100183;28;20024;-73
2022/10/22 00:19:41;;;;;;;17.40;8.00;;;11.40;99.90;;;;;;5100184;28;20309;-73
2022/10/22 00:22:09;;;;;;;14.45;7.15;;;11.30;99.90;;;;;;5100114;28;20023;-73
2022/10/22 00:24:37;;;;;;;14.55;7.70;;;11.30;99.90;;;;;;5100138;28;20119;-73
2022/10/22 00:27:06;;;;;;;17.05;7.88;;;11.20;99.90;;;;;;5100204;28;20024;-73
2022/10/22 00:29:34;;;;;;;19.55;8.18;;;11.20;99.90;;;;;;5099883;28;20027;-73
2022/10/22 00:32:02;;;;;;;17.27;7.78;;;11.20;99.90;;;;;;5099892;28;20020;-73
2022/10/22 00:34:30;;;;;;;13.18;7.88;;;11.10;99.90;;;;;;5100036;28;20028;-73
2022/10/22 00:36:57;;;;;;;21.27;6.68;;;11.10;99.90;;;;;;5099832;28;20031;-73
2022/10/22 00:39:26;;;;;;;10.95;6.80;;;11.10;99.90;;;;;;5099806;28;20102;-73
2022/10/22 00:41:55;;;;;;;13.00;6.43;;;11.00;99.90;;;;;;5100257;28;20069;-73
2022/10/22 00:44:58;;;;;;;12.82;6.50;;;10.90;99.90;;;;;;5099695;28;20027;-73
2022/10/22 00:47:32;;;;;;;16.30;6.50;;;10.90;99.90;;;;;;5081563;28;20051;-73
2022/10/22 00:50:01;;;;;;;14.32;5.78;;;10.80;99.90;;;;;;5100154;28;20027;-73
2022/10/22 00:52:28;;;;;;;12.20;6.13;;;10.80;99.90;;;;;;5099415;28;20036;-73
2022/10/22 00:54:57;;;;;;;9.73;6.43;;;10.70;99.90;;;;;;5099669;28;20020;-73
2022/10/22 00:57:24;;;;;;;13.43;6.95;;;10.70;99.90;;;;;;5098921;28;20110;-73
2022/10/22 00:59:51;;;;;;;15.15;6.82;;;10.70;99.90;;;;;;5099474;28;20035;-73
2022/10/22 01:02:18;;;;;;;12.23;6.80;;;10.70;99.90;;;;;;5098639;28;20081;-72
2022/10/22 01:04:46;;;;;;;14.23;7.32;;;10.70;99.90;;;;;;5081025;28;20031;-73
2022/10/22 01:07:19;;;;;;;10.55;6.45;;;10.70;99.90;;;;;;5099568;28;20019;-73
2022/10/22 01:10:04;;;;;;;13.02;6.22;;;10.70;99.90;;;;;;5098475;28;20333;-73
2022/10/22 01:12:55;;;;;;;10.50;5.40;;;10.60;99.90;;;;;;5099434;28;20048;-73
2022/10/22 01:15:36;;;;;;;10.55;5.03;;;10.60;99.90;;;;;;5081357;28;20055;-73
2022/10/22 01:18:12;;;;;;;10.15;5.40;;;10.50;99.90;;;;;;5099318;28;20039;-73
2022/10/22 01:21:04;;;;;;;8.15;4.93;;;10.40;99.90;;;;;;5099063;28;20039;-73
2022/10/22 01:23:52;;;;;;;9.43;5.28;;;10.40;99.90;;;;;;5099365;28;20024;-73
2022/10/22 01:26:45;;;;;;;9.30;5.10;;;10.40;99.90;;;;;;5097797;28;20484;-73
2022/10/22 01:29:20;;;;;;;16.90;6.68;;;10.40;99.90;;;;;;5099097;28;20435;-73
2022/10/22 01:32:14;;;;;;;12.95;7.07;;;10.40;99.90;;;;;;5099088;28;20031;-73
2022/10/22 01:34:46;;;;;;;14.20;7.07;;;10.40;99.90;;;;;;5098873;28;20483;-73
2022/10/22 01:37:15;;;;;;;12.27;6.78;;;10.40;99.90;;;;;;5098660;28;20106;-73
2022/10/22 01:39:45;;;;;;;12.50;6.25;;;10.40;99.90;;;;;;5080717;28;20024;-73
2022/10/22 01:42:13;;;;;;;16.48;6.60;;;10.40;99.90;;;;;;5098371;28;20051;-73
2022/10/22 01:44:41;;;;;;;18.83;6.30;;;10.40;99.90;;;;;;5098706;28;20024;-73
2022/10/22 01:47:18;;;;;;;31.05;6.53;;;10.40;99.90;;;;;;5098571;28;20031;-73
2022/10/22 01:50:13;;;;;;;11.40;5.13;;;10.40;99.90;;;;;;5098974;28;20108;-73
2022/10/22 01:53:18;;;;;;;54.45;6.78;;;10.30;99.90;;;;;;5098099;28;20042;-73
2022/10/22 01:56:09;;;;;;;27.98;6.38;;;10.20;99.90;;;;;;5076280;28;20050;-73
2022/10/22 01:58:56;;;;;;;23.17;5.63;;;10.20;99.90;;;;;;5097447;28;20424;-73
2022/10/22 02:01:41;;;;;;;15.75;5.95;;;10.10;99.90;;;;;;5098447;28;20412;-73
2022/10/22 02:04:37;;;;;;;29.30;5.67;;;10.10;99.90;;;;;;5098459;28;20028;-73
2022/10/22 02:07:10;;;;;;;23.43;6.40;;;10.10;99.90;;;;;;5096921;28;20025;-73
2022/10/22 02:09:39;;;;;;;23.52;5.57;;;10.10;99.90;;;;;;5098020;28;20419;-73
2022/10/22 02:12:08;;;;;;;14.05;5.90;;;10.00;99.90;;;;;;5079586;28;20381;-73
2022/10/22 02:14:39;;;;;;;14.00;5.80;;;10.00;99.90;;;;;;5080007;28;20024;-73
2022/10/22 02:17:10;;;;;;;11.23;6.28;;;10.00;99.90;;;;;;5097878;28;20068;-73
2022/10/22 02:20:03;;;;;;;10.88;5.47;;;10.00;99.90;;;;;;5079815;28;20020;-73
2022/10/22 02:22:30;;;;;;;11.10;6.07;;;10.00;99.90;;;;;;5096660;28;20039;-73
2022/10/22 02:24:57;;;;;;;10.95;5.78;;;10.00;99.90;;;;;;5097243;28;20431;-73
2022/10/22 02:27:44;;;;;;;10.40;6.18;;;10.00;99.90;;;;;;5097663;28;20435;-73
2022/10/22 02:30:16;;;;;;;;;;;10.00;99.90;;;;;;5098000;28;20020;-73
2022/10/22 02:32:53;;;;;;;37.10;6.35;;;10.00;99.90;;;;;;5097562;28;19908;-73
2022/10/22 02:35:23;;;;;;;24.42;5.88;;;10.00;99.90;;;;;;5079110;28;20020;-73
2022/10/22 02:37:52;;;;;;;22.00;6.13;;;10.00;99.90;;;;;;5096431;28;20068;-73
2022/10/22 02:40:20;;;;;;;19.83;5.57;;;9.90;99.90;;;;;;5079834;28;20027;-73
2022/10/22 02:42:49;;;;;;;8.43;5.38;;;9.90;99.90;;;;;;5098019;28;20016;-73
2022/10/22 02:45:18;;;;;;;9.55;5.80;;;9.90;99.90;;;;;;5078856;28;20320;-73
2022/10/22 02:47:45;;;;;;;9.60;5.82;;;9.90;99.90;;;;;;5097624;28;20084;-73
2022/10/22 02:50:13;;;;;;;12.93;6.05;;;10.00;99.90;;;;;;5079353;28;20431;-73
2022/10/22 02:52:40;;;;;;;11.75;6.18;;;10.00;99.90;;;;;;5097206;28;20048;-73
2022/10/22 02:55:08;;;;;;;15.23;6.25;;;10.00;99.90;;;;;;5097715;28;20034;-73
2022/10/22 02:57:37;;;;;;;13.25;5.88;;;10.00;99.90;;;;;;5097456;28;20021;-73
2022/10/22 03:00:06;;;;;;;10.45;5.65;;;10.00;99.90;;;;;;5078180;28;20031;-73
2022/10/22 03:02:34;;;;;;;11.60;5.82;;;10.00;99.90;;;;;;5095577;28;20032;-73
2022/10/22 03:05:01;;;;;;;10.25;5.63;;;10.00;99.90;;;;;;5078533;28;20431;-73
2022/10/22 03:07:28;;;;;;;12.95;6.78;;;10.00;99.90;;;;;;5095934;28;20055;-73
2022/10/22 03:09:56;;;;;;;13.60;5.82;;;10.00;99.90;;;;;;5079010;28;20030;-73
2022/10/22 03:12:23;;;;;;;16.05;6.20;;;10.00;99.90;;;;;;5096882;28;20028;-73
2022/10/22 03:14:50;;;;;;;12.23;6.30;;;10.00;99.90;;;;;;5097596;28;20028;-73
2022/10/22 03:17:17;;;;;;;11.48;6.63;;;10.00;99.90;;;;;;5097167;28;20031;-73
2022/10/22 03:19:44;;;;;;;14.15;6.93;;;10.00;99.90;;;;;;5096889;28;20020;-73
2022/10/22 03:22:22;;;;;;;15.13;6.70;;;10.00;99.90;;;;;;5096865;28;20090;-73
2022/10/22 03:24:55;;;;;;;12.75;6.82;;;10.00;99.90;;;;;;5096020;28;20016;-73
2022/10/22 03:27:23;;;;;;;13.93;6.80;;;10.00;99.90;;;;;;5096785;28;20103;-73
2022/10/22 03:29:51;;;;;;;15.35;7.32;;;10.00;99.90;;;;;;5095609;28;20115;-73
2022/10/22 03:32:19;;;;;;;15.00;7.78;;;10.00;99.90;;;;;;5078793;28;20024;-73
2022/10/22 03:34:46;;;;;;;15.48;7.32;;;10.00;99.90;;;;;;5097159;28;20059;-73
2022/10/22 03:37:13;;;;;;;12.57;6.70;;;10.00;99.90;;;;;;5096628;28;20016;-73
2022/10/22 03:39:40;;;;;;;17.85;7.40;;;10.00;99.90;;;;;;5096915;28;20020;-73
2022/10/22 03:42:08;;;;;;;18.38;7.40;;;10.00;99.90;;;;;;5096616;28;20017;-73
2022/10/22 03:44:37;;;;;;;15.82;7.00;;;10.00;99.90;;;;;;5096745;28;20420;-73
2022/10/22 03:47:04;;;;;;;18.80;7.95;;;10.00;99.90;;;;;;5097114;28;20021;-73
2022/10/22 03:49:32;;;;;;;14.98;7.30;;;10.00;99.90;;;;;;5096566;28;20103;-73
2022/10/22 03:52:11;;;;;;;22.80;8.13;;;10.00;99.90;;;;;;5096253;28;20028;-73
2022/10/22 03:54:39;;;;;;;15.88;7.40;;;10.00;99.90;;;;;;5096675;28;20016;-73
2022/10/22 03:57:07;;;;;;;26.25;9.50;;;9.90;99.90;;;;;;5096725;28;20423;-73
2022/10/22 03:59:40;;;;;;;20.60;9.48;;;9.90;99.90;;;;;;5096679;28;20097;-73
2022/10/22 04:02:08;;;;;;;22.02;9.55;;;10.00;99.90;;;;;;5096682;28;20320;-73
2022/10/22 04:04:36;;;;;;;25.92;10.15;;;10.00;99.90;;;;;;5078636;28;20332;-73
2022/10/22 04:07:04;;;;;;;27.27;10.65;;;10.00;99.90;;;;;;5078351;28;20425;-73
2022/10/22 04:09:32;;;;;;;23.17;9.52;;;10.10;99.90;;;;;;5096390;28;20024;-73
2022/10/22 04:12:00;;;;;;;24.38;8.55;;;10.00;99.90;;;;;;5096625;28;20308;-73
2022/10/22 04:14:27;;;;;;;21.92;9.07;;;10.00;99.90;;;;;;5096604;28;20016;-73
2022/10/22 04:16:54;;;;;;;23.02;8.85;;;10.00;99.90;;;;;;5095144;28;20031;-73
2022/10/22 04:19:22;;;;;;;22.75;9.63;;;10.00;99.90;;;;;;5095197;28;20317;-73
2022/10/22 04:21:49;;;;;;;24.33;10.15;;;10.00;99.90;;;;;;5078303;28;20020;-73
2022/10/22 04:24:16;;;;;;;22.40;9.95;;;10.00;99.90;;;;;;5096272;28;20420;-73
2022/10/22 04:26:43;;;;;;;23.55;10.02;;;10.00;99.90;;;;;;5096188;28;20031;-73
2022/10/22 04:29:11;;;;;;;25.00;10.07;;;10.00;99.90;;;;;;5078168;28;20020;-73
2022/10/22 04:31:38;;;;;;;34.92;11.38;;;10.00;99.90;;;;;;5096109;28;20020;-73
2022/10/22 04:34:05;;;;;;;32.08;11.52;;;10.00;99.90;;;;;;5096843;28;20150;-73
2022/10/22 04:36:33;;;;;;;32.72;11.70;;;10.10;99.90;;;;;;5097896;28;20035;-72
2022/10/22 04:39:01;;;;;;;36.58;13.38;;;10.10;99.90;;;;;;5081811;28;20028;-73
2022/10/22 04:41:31;;;;;;;36.72;12.00;;;10.20;99.90;;;;;;5099763;28;20052;-73
2022/10/22 04:43:59;;;;;;;29.88;13.13;;;10.20;99.90;;;;;;5099486;28;20032;-73
2022/10/22 04:46:29;;;;;;;27.63;11.13;;;10.30;99.90;;;;;;5081731;28;20051;-73
2022/10/22 04:48:56;;;;;;;35.63;12.13;;;10.20;99.90;;;;;;5100092;28;20054;-73
2022/10/22 04:51:26;;;;;;;33.25;12.50;;;10.20;99.90;;;;;;5099295;28;20075;-73
2022/10/22 04:53:54;;;;;;;41.00;13.02;;;10.20;99.90;;;;;;5100017;28;20020;-73
2022/10/22 04:56:25;;;;;;;35.80;12.18;;;10.20;99.90;;;;;;5099473;28;20020;-73
2022/10/22 04:58:58;;;;;;;37.05;12.15;;;10.20;99.90;;;;;;5099768;28;20019;-73
2022/10/22 05:01:28;;;;;;;31.48;11.73;;;10.20;99.90;;;;;;5099897;28;20020;-73
2022/10/22 05:03:58;;;;;;;31.27;11.70;;;10.20;99.90;;;;;;5099287;28;20024;-73
2022/10/22 05:06:26;;;;;;;30.65;12.43;;;10.10;99.90;;;;;;5099276;28;20126;-73
2022/10/22 05:08:57;;;;;;;33.58;10.98;;;10.10;99.90;;;;;;5081410;28;20038;-73
2022/10/22 05:11:27;;;;;;;32.38;12.48;;;10.10;99.90;;;;;;5081165;28;20027;-73
2022/10/22 05:13:59;;;;;;;33.70;12.02;;;10.10;99.90;;;;;;5099100;28;20022;-73
2022/10/22 05:16:28;;;;;;;28.92;12.00;;;10.10;99.90;;;;;;5099326;28;20108;-73
2022/10/22 05:18:57;;;;;;;35.35;13.70;;;10.00;99.90;;;;;;5099738;28;20020;-73
2022/10/22 05:21:24;;;;;;;42.03;13.57;;;10.10;99.90;;;;;;5081000;28;20435;-73
2022/10/22 05:23:53;;;;;;;39.70;12.95;;;10.20;99.90;;;;;;5098919;28;20477;-73
2022/10/22 05:26:22;;;;;;;38.75;12.93;;;10.20;99.90;;;;;;5099437;28;20016;-73
2022/10/22 05:28:50;;;;;;;39.65;12.93;;;10.20;99.90;;;;;;5098948;28;20107;-73
2022/10/22 05:31:18;;;;;;;57.17;18.10;;;10.20;99.90;;;;;;5098797;28;20062;-73
2022/10/22 05:33:45;;;;;;;39.05;14.20;;;10.20;99.90;;;;;;5099324;28;20020;-73
2022/10/22 05:36:16;;;;;;;36.13;13.02;;;10.10;99.90;;;;;;5098633;28;20031;-73
2022/10/22 05:38:43;;;;;;;35.88;12.38;;;10.00;99.90;;;;;;5098808;28;20020;-73
2022/10/22 05:41:17;;;;;;;39.10;12.32;;;10.00;99.90;;;;;;5099114;28;20017;-73
2022/10/22 05:43:44;;;;;;;37.20;13.02;;;10.00;99.90;;;;;;5080413;28;20056;-73
2022/10/22 05:46:18;;;;;;;35.60;12.00;;;10.00;99.90;;;;;;5098433;28;20024;-73
2022/10/22 05:48:49;;;;;;;35.70;12.65;;;10.00;99.90;;;;;;5097605;28;20365;-73
2022/10/22 05:51:17;;;;;;;29.23;11.52;;;10.00;99.90;;;;;;5098421;28;20016;-73
2022/10/22 05:53:45;;;;;;;32.13;11.75;;;10.00;99.90;;;;;;5098079;28;20043;-73
2022/10/22 05:56:14;;;;;;;28.38;9.57;;;10.00;99.90;;;;;;5098590;28;20020;-74
2022/10/22 05:58:43;;;;;;;26.40;10.18;;;10.00;99.90;;;;;;5098433;28;20473;-75
2022/10/22 06:01:17;;;;;;;40.47;10.35;;;9.90;99.90;;;;;;5098478;28;20031;-76
2022/10/22 06:03:45;;;;;;;23.90;9.70;;;9.90;99.90;;;;;;5098151;28;20113;-76
2022/10/22 06:06:22;;;;;;;26.38;9.82;;;9.80;99.90;;;;;;5080141;28;20093;-84
2022/10/22 06:08:52;;;;;;;28.73;12.00;;;9.70;99.90;;;;;;5098585;28;20024;-76
2022/10/22 06:11:21;;;;;;;31.27;11.65;;;9.70;99.90;;;;;;5098085;28;20023;-81
2022/10/22 06:13:50;;;;;;;34.78;12.35;;;9.70;99.90;;;;;;5098269;28;20020;-81
2022/10/22 06:16:17;;;;;;;36.08;11.68;;;9.70;99.90;;;;;;5098242;28;20316;-81
2022/10/22 06:18:45;;;;;;;32.83;12.90;;;9.80;99.90;;;;;;5080061;28;20043;-75
2022/10/22 06:21:15;;;;;;;57.88;12.95;;;9.80;99.90;;;;;;5097869;28;20020;-76
2022/10/22 06:23:43;;;;;;;40.30;12.75;;;9.80;99.90;;;;;;5079801;28;20434;-76
2022/10/22 06:26:12;;;;;;;31.27;11.43;;;9.80;99.90;;;;;;5098094;28;20420;-76
2022/10/22 06:28:39;;;;;;;30.42;11.57;;;9.90;99.90;;;;;;5097855;28;20141;-76
2022/10/22 06:31:06;;;;;;;30.98;11.23;;;9.90;99.90;;;;;;5097711;28;20020;-83
2022/10/22 06:33:40;;;;;;;24.20;11.27;;;9.90;99.90;;;;;;5097746;28;20016;-85
2022/10/22 06:36:18;;;;;;;23.25;11.20;;;9.90;99.90;;;;;;5079554;28;20115;-83
2022/10/22 06:38:45;;;;;;;25.50;11.35;;;9.80;99.90;;;;;;5097747;28;20020;-82
2022/10/22 06:41:15;;;;;;;22.40;10.00;;;9.80;99.90;;;;;;5079564;28;20115;-83
2022/10/22 06:43:45;;;;;;;18.48;9.50;;;9.90;99.90;;;;;;5079394;28;20107;-85
2022/10/22 06:46:17;;;;;;;24.50;9.95;;;9.90;99.90;;;;;;5079590;28;20038;-84
2022/10/22 06:48:54;;;;;;;29.25;10.43;;;9.80;99.90;;;;;;5079549;28;20111;-82
2022/10/22 06:51:21;;;;;;;53.80;28.48;;;9.80;99.90;;;;;;5079253;28;20069;-82
2022/10/22 06:53:49;;;;;;;23.05;14.10;;;9.80;99.90;;;;;;5097013;28;20040;-76
2022/10/22 06:56:19;;;;;;;22.38;11.00;;;9.80;99.90;;;;;;5079206;28;20301;-81
2022/10/22 06:58:51;;;;;;;17.38;8.77;;;9.80;99.90;;;;;;5079104;28;20024;-81
2022/10/22 07:01:21;;;;;;;20.38;8.70;;;9.80;99.90;;;;;;5097155;28;20404;-77
2022/10/22 07:03:51;;;;;;;19.73;8.43;;;9.80;99.90;;;;;;5096007;28;20446;-81
2022/10/22 07:06:19;;;;;;;18.15;8.27;;;9.80;99.90;;;;;;5079162;28;20032;-79
2022/10/22 07:08:47;;;;;;;21.65;10.13;;;9.80;99.90;;;;;;5097243;28;20024;-77
2022/10/22 07:11:20;;;;;;;14.85;8.10;;;9.80;99.90;;;;;;5096976;28;20024;-77
2022/10/22 07:13:49;;;;;;;13.15;8.10;;;9.80;99.90;;;;;;5096977;28;20028;-77
2022/10/22 07:16:17;;;;;;;15.45;8.20;;;9.80;99.90;;;;;;5079057;28;20094;-78
2022/10/22 07:18:45;;;;;;;39.17;23.40;;;9.80;99.90;;;;;;5095984;28;20028;-76
2022/10/22 07:21:14;;;;;;;17.65;9.10;;;9.80;99.90;;;;;;5096837;28;20052;-76
2022/10/22 07:23:42;;;;;;;18.77;10.48;;;9.80;99.90;;;;;;5097118;28;20031;-75
2022/10/22 07:26:12;;;;;;;20.25;11.52;;;9.80;99.90;;;;;;5078913;28;20119;-76
2022/10/22 07:28:40;;;;;;;16.50;9.02;;;9.80;99.90;;;;;;5096818;28;20017;-76
2022/10/22 07:31:08;;;;;;;16.58;8.63;;;9.80;99.90;;;;;;5078766;28;20023;-76
2022/10/22 07:33:37;;;;;;;15.43;8.27;;;9.90;99.90;;;;;;5096747;28;20023;-76
2022/10/22 07:36:06;;;;;;;17.25;9.43;;;10.00;99.90;;;;;;5078776;28;20115;-75
2022/10/22 07:38:35;;;;;;;19.13;9.38;;;10.20;99.90;;;;;;5096802;28;20052;-74
2022/10/22 07:41:03;;;;;;;18.50;10.13;;;10.40;99.90;;;;;;5096631;28;20058;-77
2022/10/22 07:43:30;;;;;;;22.73;11.02;;;10.50;99.90;;;;;;5096831;28;20074;-75
2022/10/22 07:45:59;;;;;;;23.85;10.32;;;10.60;99.90;;;;;;5096535;28;20074;-75
2022/10/22 07:48:26;;;;;;;21.27;10.77;;;10.80;99.90;;;;;;5096734;28;20024;-76
2022/10/22 07:50:54;;;;;;;20.00;10.80;;;11.00;99.90;;;;;;5096785;28;20020;-75
2022/10/22 07:53:25;;;;;;;20.27;10.05;;;11.10;99.90;;;;;;5096229;28;20075;-75
2022/10/22 07:55:53;;;;;;;21.55;9.75;;;11.20;99.90;;;;;;5096511;28;20028;-75
2022/10/22 07:58:24;;;;;;;17.65;9.50;;;11.30;99.90;;;;;;5096430;28;20366;-75
2022/10/22 08:00:56;;;;;;;19.25;10.13;;;11.30;99.90;;;;;;5096465;28;20107;-75
2022/10/22 08:03:23;;;;;;;28.85;11.35;;;11.40;99.90;;;;;;5096383;28;20017;-78
2022/10/22 08:05:52;;;;;;;21.77;10.20;;;11.50;99.90;;;;;;5078310;28;20028;-77
2022/10/22 08:08:25;;;;;;;20.23;9.60;;;11.70;99.90;;;;;;5096960;28;20012;-77
2022/10/22 08:10:53;;;;;;;21.73;10.77;;;11.80;99.90;;;;;;5097116;28;20346;-78
2022/10/22 08:13:22;;;;;;;16.80;10.20;;;11.90;99.90;;;;;;5100328;28;20070;-77
2022/10/22 08:15:49;;;;;;;19.85;10.45;;;11.90;99.90;;;;;;5082332;28;20047;-78
2022/10/22 08:18:17;;;;;;;19.95;9.57;;;12.00;99.90;;;;;;5082184;28;20060;-78
2022/10/22 08:20:44;;;;;;;18.15;8.95;;;12.00;99.90;;;;;;5082265;28;20429;-79
2022/10/22 08:23:12;;;;;;;15.43;8.35;;;12.10;99.90;;;;;;5099010;28;20024;-78
2022/10/22 08:25:39;;;;;;;12.48;7.95;;;12.20;99.90;;;;;;5081966;28;20035;-78
2022/10/22 08:28:06;;;;;;;16.70;9.05;;;12.20;99.90;;;;;;5099984;28;20020;-78
2022/10/22 08:30:36;;;;;;;15.20;8.98;;;12.30;99.90;;;;;;5100148;28;20026;-76
2022/10/22 08:33:07;;;;;;;25.33;8.93;;;12.60;99.90;;;;;;5099918;28;20095;-75
2022/10/22 08:35:34;;;;;;;13.77;6.70;;;12.70;99.90;;;;;;5099890;28;20081;-76
2022/10/22 08:38:02;;;;;;;14.52;6.80;;;12.80;99.90;;;;;;5099852;28;20024;-75
2022/10/22 08:40:38;;;;;;;11.40;6.60;;;13.00;99.90;;;;;;5081303;28;20024;-75
2022/10/22 08:43:13;;;;;;;;;;;13.20;99.90;;;;;;5100312;28;20425;-76
2022/10/22 08:46:09;;;;;;;33.35;13.45;;;13.30;99.90;;;;;;5099629;28;19956;-74
2022/10/22 08:48:54;;;;;;;20.50;10.80;;;13.60;99.90;;;;;;5096101;28;20039;-74
2022/10/22 08:51:27;;;;;;;17.20;10.32;;;13.80;99.90;;;;;;5081557;28;20055;-73
2022/10/22 08:54:08;;;;;;;8.70;5.43;;;14.00;99.90;;;;;;5099352;28;20043;-74
2022/10/22 08:56:37;;;;;;;10.50;6.55;;;14.30;99.90;;;;;;5099563;28;20024;-74
2022/10/22 08:59:15;;;;;;;7.65;4.43;;;14.50;99.90;;;;;;5099526;28;20016;-77
2022/10/22 09:01:48;;;;;;;5.95;2.95;;;14.70;99.90;;;;;;5099428;28;20024;-77
2022/10/22 09:04:47;;;;;;;8.93;2.97;;;14.90;99.90;;;;;;5099368;28;20028;-79
2022/10/22 09:07:15;;;;;;;5.10;3.28;;;15.00;99.90;;;;;;5079614;28;20301;-83
2022/10/22 09:09:51;;;;;;;5.72;3.30;;;15.20;99.90;;;;;;5099758;28;20107;-77
2022/10/22 09:12:21;;;;;;;5.40;2.65;;;15.30;99.90;;;;;;5098153;28;20024;-77
2022/10/22 09:14:49;;;;;;;8.05;3.20;;;15.40;99.90;;;;;;5098095;28;20021;-76
2022/10/22 09:17:34;;;;;;;5.65;2.92;;;15.50;99.90;;;;;;5099456;28;20412;-76
2022/10/22 09:20:28;;;;;;;10.07;3.00;;;15.60;99.90;;;;;;5099228;28;20028;-75
2022/10/22 09:23:18;;;;;;;4.57;2.90;;;15.70;99.90;;;;;;5097879;28;20020;-75
2022/10/22 09:25:48;;;;;;;4.68;2.80;;;15.80;99.90;;;;;;5080968;28;20028;-75
2022/10/22 09:28:15;;;;;;;5.68;2.13;;;15.90;99.90;;;;;;5080879;28;20035;-75
2022/10/22 09:30:43;;;;;;;6.15;2.33;;;15.90;99.90;;;;;;5080988;28;20027;-75
2022/10/22 09:33:15;;;;;;;7.13;2.17;;;15.90;99.90;;;;;;5099367;28;20061;-75
2022/10/22 09:35:57;;;;;;;5.60;2.58;;;16.00;99.90;;;;;;5080883;28;20028;-75
2022/10/22 09:38:30;;;;;;;8.23;2.50;;;16.10;99.90;;;;;;5099358;28;20473;-75
2022/10/22 09:41:02;;;;;;;5.95;2.58;;;16.10;99.90;;;;;;5098667;28;20043;-75
2022/10/22 09:43:30;;;;;;;5.55;2.10;;;16.10;99.90;;;;;;5098804;28;20066;-74
2022/10/22 09:46:46;;;;;;;4.70;2.80;;;16.10;99.90;;;;;;5098993;28;20043;-76
2022/10/22 09:49:24;;;;;;;5.18;2.70;;;16.00;99.90;;;;;;5098687;28;20028;-75
2022/10/22 09:51:56;;;;;;;6.03;2.53;;;16.10;99.90;;;;;;5098705;28;20112;-75
2022/10/22 09:54:39;;;;;;;6.95;2.92;;;16.10;99.90;;;;;;5098370;28;20024;-74
2022/10/22 09:57:21;;;;;;;9.38;2.70;;;16.20;99.90;;;;;;5098624;28;20017;-74
2022/10/22 09:59:50;;;;;;;5.35;2.70;;;16.20;99.90;;;;;;5098507;28;20026;-74
2022/10/22 10:02:23;;;;;;;5.55;2.22;;;16.30;99.90;;;;;;5098173;28;20078;-78
2022/10/22 10:04:53;;;;;;;4.93;2.72;;;16.20;99.90;;;;;;5098194;28;20116;-74
2022/10/22 10:07:33;;;;;;;5.22;2.50;;;16.30;99.90;;;;;;5098167;28;20024;-74
2022/10/22 10:10:16;;;;;;;8.45;2.33;;;16.30;99.90;;;;;;5098287;28;20028;-74
2022/10/22 10:13:09;;;;;;;7.53;2.13;;;16.40;99.90;;;;;;5096942;28;20419;-73
2022/10/22 10:15:55;;;;;;;4.82;2.33;;;16.60;99.90;;;;;;5098273;28;20073;-73
2022/10/22 10:18:51;;;;;;;5.13;2.00;;;16.70;99.90;;;;;;5099089;28;20312;-74
2022/10/22 10:21:31;;;;;;;6.93;2.25;;;16.80;99.90;;;;;;5079940;28;20454;-74
2022/10/22 10:24:21;;;;;;;4.37;2.17;;;16.90;99.90;;;;;;5098146;28;20081;-73
2022/10/22 10:27:05;;;;;;;6.38;2.22;;;17.00;99.90;;;;;;5092422;28;20388;-73
2022/10/22 10:29:51;;;;;;;13.60;2.83;;;17.10;99.90;;;;;;5097909;28;20027;-76
2022/10/22 10:32:32;;;;;;;;;;;17.20;99.90;;;;;;5080096;28;20020;-74
2022/10/22 10:35:31;;;;;;;8.10;3.17;;;17.20;99.90;;;;;;5097165;28;19904;-74
2022/10/22 10:38:20;;;;;;;10.45;2.38;;;17.20;99.90;;;;;;5098083;28;20469;-74
2022/10/22 10:41:00;;;;;;;4.38;2.05;;;17.30;99.90;;;;;;5097928;28;20443;-74
2022/10/22 10:43:46;;;;;;;5.38;2.15;;;17.40;99.90;;;;;;5098056;28;20031;-74
2022/10/22 10:46:34;;;;;;;5.70;2.22;;;17.60;99.90;;;;;;5096287;28;20090;-74
2022/10/22 10:49:26;;;;;;;8.55;2.17;;;17.80;99.90;;;;;;5097408;28;20479;-75
2022/10/22 10:52:09;;;;;;;6.80;2.22;;;17.90;99.90;;;;;;5097306;28;20047;-73
2022/10/22 10:55:01;;;;;;;6.75;1.80;;;18.00;99.90;;;;;;5097766;28;20374;-79
2022/10/22 10:57:39;;;;;;;4.20;1.45;;;18.10;99.90;;;;;;5096454;28;20320;-78
2022/10/22 11:00:20;;;;;;;8.10;1.90;;;18.20;99.90;;;;;;5097425;28;20081;-75
2022/10/22 11:03:11;;;;;;;14.02;2.10;;;18.20;99.90;;;;;;5097879;28;20016;-73
2022/10/22 11:05:54;;;;;;;10.32;1.73;;;18.30;99.90;;;;;;5097326;28;20024;-74
2022/10/22 11:08:44;;;;;;;5.63;1.80;;;18.40;99.90;;;;;;5097393;28;20319;-73
2022/10/22 11:11:23;;;;;;;5.78;1.50;;;18.40;99.90;;;;;;5097317;28;20027;-73
2022/10/22 11:14:10;;;;;;;6.25;1.48;;;18.50;99.90;;;;;;5097111;28;20356;-73
2022/10/22 11:16:48;;;;;;;8.80;1.73;;;18.50;99.90;;;;;;5097237;28;20016;-73
2022/10/22 11:19:39;;;;;;;8.38;1.73;;;18.60;99.90;;;;;;5096986;28;20035;-73
2022/10/22 11:22:29;;;;;;;6.18;2.20;;;18.50;99.90;;;;;;5097609;28;20022;-73
2022/10/22 11:25:01;;;;;;;9.27;1.67;;;18.40;99.90;;;;;;5096947;28;20027;-73
2022/10/22 11:27:48;;;;;;;11.40;1.90;;;18.30;99.90;;;;;;5097095;28;20095;-75
2022/10/22 11:30:18;;;;;;;9.90;1.50;;;18.20;99.90;;;;;;5096706;28;20047;-74
2022/10/22 11:32:59;;;;;;;9.43;1.48;;;18.00;99.90;;;;;;5095612;28;20059;-74
2022/10/22 11:35:38;;;;;;;8.45;1.38;;;17.90;99.90;;;;;;5096670;28;20024;-73
2022/10/22 11:38:08;;;;;;;4.25;1.38;;;17.70;99.90;;;;;;5097223;28;20024;-74
2022/10/22 11:40:51;;;;;;;9.40;1.67;;;17.60;99.90;;;;;;5096628;28;20024;-75
2022/10/22 11:43:36;;;;;;;9.77;1.55;;;17.50;99.90;;;;;;5096755;28;20074;-77
2022/10/22 11:46:16;;;;;;;8.07;1.43;;;17.40;99.90;;;;;;5096588;28;20024;-80
2022/10/22 11:48:43;;;;;;;5.32;1.10;;;17.30;99.90;;;;;;5082871;28;20609;-77
2022/10/22 11:51:37;;;;;;;8.60;1.55;;;17.30;99.90;;;;;;5101110;28;20020;-77
2022/10/22 11:54:28;;;;;;;11.02;1.75;;;17.40;99.90;;;;;;5079317;28;20033;-75
2022/10/22 11:57:23;;;;;;;9.50;2.35;;;17.50;99.90;;;;;;5071134;28;20090;-77
2022/10/22 12:00:00;;;;;;;11.27;1.75;;;17.60;99.90;;;;;;5080344;28;20105;-77
2022/10/22 12:02:39;;;;;;;11.20;1.98;;;17.70;99.90;;;;;;5080320;28;20103;-77
2022/10/22 12:05:24;;;;;;;5.68;1.30;;;17.80;99.90;;;;;;5080349;28;20032;-75
2022/10/22 12:08:15;;;;;;;11.88;2.40;;;17.90;99.90;;;;;;5079896;28;20040;-77
2022/10/22 12:10:58;;;;;;;8.57;1.55;;;18.10;99.90;;;;;;5079059;28;20035;-77
2022/10/22 12:13:31;;;;;;;7.03;1.50;;;18.30;99.90;;;;;;5080460;28;20024;-77
2022/10/22 12:16:03;;;;;;;6.72;1.58;;;18.50;99.90;;;;;;5080047;28;20028;-76
2022/10/22 12:18:41;;;;;;;6.93;2.25;;;18.60;99.90;;;;;;5078925;28;20025;-75
2022/10/22 12:21:13;;;;;;;9.57;1.58;;;18.70;99.90;;;;;;5080085;28;20025;-75
2022/10/22 12:23:43;;;;;;;8.23;1.50;;;18.70;99.90;;;;;;5079368;28;20031;-75
2022/10/22 12:26:25;;;;;;;7.35;1.52;;;18.70;99.90;;;;;;5080070;28;20058;-76
2022/10/22 12:29:01;;;;;;;12.45;1.80;;;18.70;99.90;;;;;;5079776;28;20035;-74
2022/10/22 12:31:37;;;;;;;14.70;2.45;;;18.60;99.90;;;;;;5079787;28;20020;-73
2022/10/22 12:34:05;;;;;;;8.60;1.92;;;18.50;99.90;;;;;;5095743;28;20111;-73
2022/10/22 12:36:38;;;;;;;4.43;1.02;;;18.20;99.90;;;;;;5079659;28;20099;-74
2022/10/22 12:39:17;;;;;;;7.57;1.73;;;18.10;99.90;;;;;;5079643;28;20432;-73
2022/10/22 12:41:45;;;;;;;8.13;1.80;;;17.90;99.90;;;;;;5079851;28;20412;-75
2022/10/22 12:44:17;;;;;;;8.38;1.77;;;17.80;99.90;;;;;;5079574;28;20024;-74
2022/10/22 12:46:49;;;;;;;7.07;1.48;;;17.70;99.90;;;;;;5079484;28;20028;-70
2022/10/22 12:49:35;;;;;;;5.13;1.60;;;17.70;99.90;;;;;;5078363;28;20417;-74
2022/10/22 12:52:07;;;;;;;8.55;2.15;;;17.60;99.90;;;;;;5081732;28;20024;-73
2022/10/22 12:54:35;;;;;;;6.13;1.80;;;17.60;99.90;;;;;;5098691;28;20089;-73
2022/10/22 12:57:02;;;;;;;9.68;1.85;;;17.60;99.90;;;;;;5099354;28;20035;-74
2022/10/22 12:59:36;;;;;;;5.38;1.55;;;17.50;99.90;;;;;;5099506;28;20046;-73
2022/10/22 13:02:20;;;;;;;8.38;2.28;;;17.40;99.90;;;;;;5100010;28;20016;-74
2022/10/22 13:05:20;;;;;;;5.15;1.42;;;17.30;99.90;;;;;;5099540;28;20432;-74
2022/10/22 13:07:50;;;;;;;5.43;1.92;;;17.10;99.90;;;;;;5099651;28;20023;-75
2022/10/22 13:10:33;;;;;;;8.27;2.25;;;17.00;99.90;;;;;;5099936;28;20035;-77
2022/10/22 13:13:05;;;;;;;13.13;2.58;;;16.90;99.90;;;;;;5099651;28;20469;-76